sensor_id;sensor_type;location;lat;lon;timestamp;temperature;humidity
24384;DHT22;12504;52.870;8.798;2023-02-04T00:00:05;5.00;99.90
24384;DHT22;12504;52.870;8.798;2023-02-04T00:02:32;4.90;99.90
24384;DHT22;12504;52.870;8.798;2023-02-04T00:04:58;4.90;99.90
24384;DHT22;12504;52.870;8.798;2023-02-04T00:07:23;4.90;99.90
24384;DHT22;12504;52.870;8.798;2023-02-04T00:09:49;4.90;99.90
24384;DHT22;12504;52.870;8.798;2023-02-04T00:12:15;4.90;99.90
24384;DHT22;12504;52.870;8.798;2023-02-04T00:14:41;4.90;99.90
24384;DHT22;12504;52.870;8.798;2023-02-04T00:17:07;4.90;99.90
24384;DHT22;12504;52.870;8.798;2023-02-04T00:19:35;4.80;99.90
24384;DHT22;12504;52.870;8.798;2023-02-04T00:22:00;4.80;99.90
24384;DHT22;12504;52.870;8.798;2023-02-04T00:24:28;4.80;99.90
24384;DHT22;12504;52.870;8.798;2023-02-04T00:26:55;4.80;99.90
24384;DHT22;12504;52.870;8.798;2023-02-04T00:29:21;4.70;99.90
24384;DHT22;12504;52.870;8.798;2023-02-04T00:31:47;4.60;99.90
24384;DHT22;12504;52.870;8.798;2023-02-04T00:34:12;4.50;99.90
24384;DHT22;12504;52.870;8.798;2023-02-04T00:36:38;4.50;99.90
24384;DHT22;12504;52.870;8.798;2023-02-04T00:39:03;4.50;99.90
24384;DHT22;12504;52.870;8.798;2023-02-04T00:41:29;4.50;99.90
24384;DHT22;12504;52.870;8.798;2023-02-04T00:43:55;4.50;99.90
24384;DHT22;12504;52.870;8.798;2023-02-04T00:46:20;4.50;99.90
24384;DHT22;12504;52.870;8.798;2023-02-04T00:48:46;4.50;99.90
24384;DHT22;12504;52.870;8.798;2023-02-04T00:51:11;4.50;99.90
24384;DHT22;12504;52.870;8.798;2023-02-04T00:53:37;4.40;99.90
24384;DHT22;12504;52.870;8.798;2023-02-04T00:56:03;4.40;99.90
24384;DHT22;12504;52.870;8.798;2023-02-04T00:58:29;4.30;99.90
24384;DHT22;12504;52.870;8.798;2023-02-04T01:00:54;4.30;99.90
24384;DHT22;12504;52.870;8.798;2023-02-04T01:03:20;4.20;99.90
24384;DHT22;12504;52.870;8.798;2023-02-04T01:05:46;4.20;99.90
24384;DHT22;12504;52.870;8.798;2023-02-04T01:11:05;4.10;99.90
24384;DHT22;12504;52.870;8.798;2023-02-04T01:13:31;4.00;99.90
24384;DHT22;12504;52.870;8.798;2023-02-04T01:15:57;4.00;99.90
24384;DHT22;12504;52.870;8.798;2023-02-04T01:18:23;3.90;99.90
24384;DHT22;12504;52.870;8.798;2023-02-04T01:20:48;3.90;99.90
24384;DHT22;12504;52.870;8.798;2023-02-04T01:23:16;3.80;99.90
24384;DHT22;12504;52.870;8.798;2023-02-04T01:25:42;3.80;99.90
24384;DHT22;12504;52.870;8.798;2023-02-04T01:28:08;3.80;99.90
24384;DHT22;12504;52.870;8.798;2023-02-04T01:30:33;3.70;99.90
24384;DHT22;12504;52.870;8.798;2023-02-04T01:32:59;3.80;99.90
24384;DHT22;12504;52.870;8.798;2023-02-04T01:35:25;3.80;99.90
24384;DHT22;12504;52.870;8.798;2023-02-04T01:37:50;3.70;99.90
24384;DHT22;12504;52.870;8.798;2023-02-04T01:40:16;3.70;99.90
24384;DHT22;12504;52.870;8.798;2023-02-04T01:42:43;3.70;99.90
24384;DHT22;12504;52.870;8.798;2023-02-04T01:45:09;3.70;99.90
24384;DHT22;12504;52.870;8.798;2023-02-04T01:47:35;3.70;99.90
24384;DHT22;12504;52.870;8.798;2023-02-04T01:50:01;3.60;99.90
24384;DHT22;12504;52.870;8.798;2023-02-04T01:52:31;3.70;99.90
24384;DHT22;12504;52.870;8.798;2023-02-04T01:54:59;3.70;99.90
24384;DHT22;12504;52.870;8.798;2023-02-04T01:57:25;3.70;99.90
24384;DHT22;12504;52.870;8.798;2023-02-04T01:59:53;3.70;99.90
24384;DHT22;12504;52.870;8.798;2023-02-04T02:02:52;3.60;99.90
24384;DHT22;12504;52.870;8.798;2023-02-04T02:05:27;3.60;99.90
24384;DHT22;12504;52.870;8.798;2023-02-04T02:07:58;3.70;99.90
24384;DHT22;12504;52.870;8.798;2023-02-04T02:10:25;3.70;99.90
24384;DHT22;12504;52.870;8.798;2023-02-04T02:12:51;3.70;99.90
24384;DHT22;12504;52.870;8.798;2023-02-04T02:15:19;3.70;99.90
24384;DHT22;12504;52.870;8.798;2023-02-04T02:17:45;3.70;99.90
24384;DHT22;12504;52.870;8.798;2023-02-04T02:20:14;3.70;99.90
24384;DHT22;12504;52.870;8.798;2023-02-04T02:25:29;3.60;99.90
24384;DHT22;12504;52.870;8.798;2023-02-04T02:27:56;3.60;99.90
24384;DHT22;12504;52.870;8.798;2023-02-04T02:30:22;3.60;99.90
24384;DHT22;12504;52.870;8.798;2023-02-04T02:32:49;3.70;99.90
24384;DHT22;12504;52.870;8.798;2023-02-04T02:35:16;3.70;99.90
24384;DHT22;12504;52.870;8.798;2023-02-04T02:37:42;3.70;99.90
24384;DHT22;12504;52.870;8.798;2023-02-04T02:40:08;3.70;99.90
24384;DHT22;12504;52.870;8.798;2023-02-04T02:42:35;3.60;99.90
24384;DHT22;12504;52.870;8.798;2023-02-04T02:45:04;3.50;99.90
24384;DHT22;12504;52.870;8.798;2023-02-04T02:47:31;3.40;99.90
24384;DHT22;12504;52.870;8.798;2023-02-04T02:49:57;3.40;99.90
24384;DHT22;12504;52.870;8.798;2023-02-04T02:52:23;3.30;99.90
24384;DHT22;12504;52.870;8.798;2023-02-04T02:54:49;3.20;99.90
24384;DHT22;12504;52.870;8.798;2023-02-04T02:57:19;3.20;99.90
24384;DHT22;12504;52.870;8.798;2023-02-04T02:59:45;3.10;99.90
24384;DHT22;12504;52.870;8.798;2023-02-04T03:02:14;3.10;99.90
24384;DHT22;12504;52.870;8.798;2023-02-04T03:04:44;3.10;99.90
24384;DHT22;12504;52.870;8.798;2023-02-04T03:07:14;3.00;99.90
24384;DHT22;12504;52.870;8.798;2023-02-04T03:09:40;3.00;99.90
24384;DHT22;12504;52.870;8.798;2023-02-04T03:12:06;2.90;99.90
24384;DHT22;12504;52.870;8.798;2023-02-04T03:14:34;2.90;99.90
24384;DHT22;12504;52.870;8.798;2023-02-04T03:17:01;2.80;99.90
24384;DHT22;12504;52.870;8.798;2023-02-04T03:19:28;2.80;99.90
24384;DHT22;12504;52.870;8.798;2023-02-04T03:21:55;2.70;99.90
24384;DHT22;12504;52.870;8.798;2023-02-04T03:24:22;2.60;99.90
24384;DHT22;12504;52.870;8.798;2023-02-04T03:26:48;2.50;99.90
24384;DHT22;12504;52.870;8.798;2023-02-04T03:29:13;2.40;99.90
24384;DHT22;12504;52.870;8.798;2023-02-04T03:31:40;2.50;99.90
24384;DHT22;12504;52.870;8.798;2023-02-04T03:34:05;2.50;99.90
24384;DHT22;12504;52.870;8.798;2023-02-04T03:36:31;2.50;99.90
24384;DHT22;12504;52.870;8.798;2023-02-04T03:38:57;2.40;99.90
24384;DHT22;12504;52.870;8.798;2023-02-04T03:41:23;2.40;99.90
24384;DHT22;12504;52.870;8.798;2023-02-04T03:43:49;2.30;99.90
24384;DHT22;12504;52.870;8.798;2023-02-04T03:46:14;2.20;99.90
24384;DHT22;12504;52.870;8.798;2023-02-04T03:48:40;2.10;99.90
24384;DHT22;12504;52.870;8.798;2023-02-04T03:51:06;2.00;99.90
24384;DHT22;12504;52.870;8.798;2023-02-04T03:53:32;1.90;99.90
24384;DHT22;12504;52.870;8.798;2023-02-04T03:55:57;1.90;99.90
24384;DHT22;12504;52.870;8.798;2023-02-04T03:58:23;1.90;99.90
24384;DHT22;12504;52.870;8.798;2023-02-04T04:00:49;1.80;99.90
24384;DHT22;12504;52.870;8.798;2023-02-04T04:03:15;1.80;99.90
24384;DHT22;12504;52.870;8.798;2023-02-04T04:05:41;1.70;99.90
24384;DHT22;12504;52.870;8.798;2023-02-04T04:08:07;1.70;99.90
24384;DHT22;12504;52.870;8.798;2023-02-04T04:10:32;1.60;99.90
24384;DHT22;12504;52.870;8.798;2023-02-04T04:12:58;1.50;99.90
24384;DHT22;12504;52.870;8.798;2023-02-04T04:15:24;1.50;99.90
24384;DHT22;12504;52.870;8.798;2023-02-04T04:17:50;1.50;99.90
24384;DHT22;12504;52.870;8.798;2023-02-04T04:20:16;1.50;99.90
24384;DHT22;12504;52.870;8.798;2023-02-04T04:22:41;1.50;99.90
24384;DHT22;12504;52.870;8.798;2023-02-04T04:25:07;1.50;99.90
24384;DHT22;12504;52.870;8.798;2023-02-04T04:27:33;1.40;99.90
24384;DHT22;12504;52.870;8.798;2023-02-04T04:29:59;1.50;99.90
24384;DHT22;12504;52.870;8.798;2023-02-04T04:32:25;1.40;99.90
24384;DHT22;12504;52.870;8.798;2023-02-04T04:34:51;1.30;99.90
24384;DHT22;12504;52.870;8.798;2023-02-04T04:37:16;1.20;99.90
24384;DHT22;12504;52.870;8.798;2023-02-04T04:39:42;1.20;99.90
24384;DHT22;12504;52.870;8.798;2023-02-04T04:42:07;1.20;99.90
24384;DHT22;12504;52.870;8.798;2023-02-04T04:44:34;1.20;99.90
24384;DHT22;12504;52.870;8.798;2023-02-04T04:46:59;1.10;99.90
24384;DHT22;12504;52.870;8.798;2023-02-04T04:49:25;1.10;99.90
24384;DHT22;12504;52.870;8.798;2023-02-04T04:51:51;1.10;99.90
24384;DHT22;12504;52.870;8.798;2023-02-04T04:54:17;1.10;99.90
24384;DHT22;12504;52.870;8.798;2023-02-04T04:56:42;1.10;99.90
24384;DHT22;12504;52.870;8.798;2023-02-04T04:59:08;1.00;99.90
24384;DHT22;12504;52.870;8.798;2023-02-04T05:01:34;1.00;99.90
24384;DHT22;12504;52.870;8.798;2023-02-04T05:04:00;0.90;99.90
24384;DHT22;12504;52.870;8.798;2023-02-04T05:06:25;0.90;99.90
24384;DHT22;12504;52.870;8.798;2023-02-04T05:08:51;0.80;99.90
24384;DHT22;12504;52.870;8.798;2023-02-04T05:11:17;1.00;99.90
24384;DHT22;12504;52.870;8.798;2023-02-04T05:13:43;1.00;99.90
24384;DHT22;12504;52.870;8.798;2023-02-04T05:16:08;0.90;99.90
24384;DHT22;12504;52.870;8.798;2023-02-04T05:18:37;0.80;99.90
24384;DHT22;12504;52.870;8.798;2023-02-04T05:21:03;0.80;99.90
24384;DHT22;12504;52.870;8.798;2023-02-04T05:23:29;0.80;99.90
24384;DHT22;12504;52.870;8.798;2023-02-04T05:25:55;0.80;99.90
24384;DHT22;12504;52.870;8.798;2023-02-04T05:28:20;0.70;99.90
24384;DHT22;12504;52.870;8.798;2023-02-04T05:30:46;0.70;99.90
24384;DHT22;12504;52.870;8.798;2023-02-04T05:33:12;0.70;99.90
24384;DHT22;12504;52.870;8.798;2023-02-04T05:35:38;0.70;99.90
24384;DHT22;12504;52.870;8.798;2023-02-04T05:38:04;0.70;99.90
24384;DHT22;12504;52.870;8.798;2023-02-04T05:40:29;0.70;99.90
24384;DHT22;12504;52.870;8.798;2023-02-04T05:42:55;0.70;99.90
24384;DHT22;12504;52.870;8.798;2023-02-04T05:45:21;0.70;99.90
24384;DHT22;12504;52.870;8.798;2023-02-04T05:47:46;0.70;99.90
24384;DHT22;12504;52.870;8.798;2023-02-04T05:50:13;0.70;99.90
24384;DHT22;12504;52.870;8.798;2023-02-04T05:52:39;0.70;99.90
24384;DHT22;12504;52.870;8.798;2023-02-04T05:55:05;0.70;99.90
24384;DHT22;12504;52.870;8.798;2023-02-04T05:57:31;0.70;99.90
24384;DHT22;12504;52.870;8.798;2023-02-04T05:59:57;0.90;99.90
24384;DHT22;12504;52.870;8.798;2023-02-04T06:02:23;0.80;99.90
24384;DHT22;12504;52.870;8.798;2023-02-04T06:04:48;0.90;99.90
24384;DHT22;12504;52.870;8.798;2023-02-04T06:07:14;0.80;99.90
24384;DHT22;12504;52.870;8.798;2023-02-04T06:09:40;0.80;99.90
24384;DHT22;12504;52.870;8.798;2023-02-04T06:12:06;0.80;99.90
24384;DHT22;12504;52.870;8.798;2023-02-04T06:14:31;0.70;99.90
24384;DHT22;12504;52.870;8.798;2023-02-04T06:16:57;0.70;99.90
24384;DHT22;12504;52.870;8.798;2023-02-04T06:19:24;0.70;99.90
24384;DHT22;12504;52.870;8.798;2023-02-04T06:21:50;0.70;99.90
24384;DHT22;12504;52.870;8.798;2023-02-04T06:24:16;0.70;99.90
24384;DHT22;12504;52.870;8.798;2023-02-04T06:26:41;0.80;99.90
24384;DHT22;12504;52.870;8.798;2023-02-04T06:29:07;0.90;99.90
24384;DHT22;12504;52.870;8.798;2023-02-04T06:31:33;0.90;99.90
24384;DHT22;12504;52.870;8.798;2023-02-04T06:33:58;0.90;99.90
24384;DHT22;12504;52.870;8.798;2023-02-04T06:36:24;0.80;99.90
24384;DHT22;12504;52.870;8.798;2023-02-04T06:38:50;0.80;99.90
24384;DHT22;12504;52.870;8.798;2023-02-04T06:41:16;0.80;99.90
24384;DHT22;12504;52.870;8.798;2023-02-04T06:43:41;0.80;99.90
24384;DHT22;12504;52.870;8.798;2023-02-04T06:46:07;0.70;99.90
24384;DHT22;12504;52.870;8.798;2023-02-04T06:48:33;0.70;99.90
24384;DHT22;12504;52.870;8.798;2023-02-04T06:50:58;0.70;99.90
24384;DHT22;12504;52.870;8.798;2023-02-04T06:53:24;0.60;99.90
24384;DHT22;12504;52.870;8.798;2023-02-04T06:55:49;0.60;99.90
24384;DHT22;12504;52.870;8.798;2023-02-04T06:58:17;0.50;99.90
24384;DHT22;12504;52.870;8.798;2023-02-04T07:00:43;0.50;99.90
24384;DHT22;12504;52.870;8.798;2023-02-04T07:03:08;0.50;99.90
24384;DHT22;12504;52.870;8.798;2023-02-04T07:05:34;0.50;99.90
24384;DHT22;12504;52.870;8.798;2023-02-04T07:08:00;0.50;99.90
24384;DHT22;12504;52.870;8.798;2023-02-04T07:10:26;0.40;99.90
24384;DHT22;12504;52.870;8.798;2023-02-04T07:12:52;0.40;99.90
24384;DHT22;12504;52.870;8.798;2023-02-04T07:15:17;0.40;99.90
24384;DHT22;12504;52.870;8.798;2023-02-04T07:17:43;0.40;99.90
24384;DHT22;12504;52.870;8.798;2023-02-04T07:20:10;0.50;99.90
24384;DHT22;12504;52.870;8.798;2023-02-04T07:22:36;0.50;99.90
24384;DHT22;12504;52.870;8.798;2023-02-04T07:25:02;0.60;99.90
24384;DHT22;12504;52.870;8.798;2023-02-04T07:27:28;0.60;99.90
24384;DHT22;12504;52.870;8.798;2023-02-04T07:29:53;0.70;99.90
24384;DHT22;12504;52.870;8.798;2023-02-04T07:32:19;0.70;99.90
24384;DHT22;12504;52.870;8.798;2023-02-04T07:34:45;0.70;99.90
24384;DHT22;12504;52.870;8.798;2023-02-04T07:37:11;0.80;99.90
24384;DHT22;12504;52.870;8.798;2023-02-04T07:39:36;0.90;99.90
24384;DHT22;12504;52.870;8.798;2023-02-04T07:42:02;1.00;99.90
24384;DHT22;12504;52.870;8.798;2023-02-04T07:44:34;1.10;99.90
24384;DHT22;12504;52.870;8.798;2023-02-04T07:46:59;1.10;99.90
24384;DHT22;12504;52.870;8.798;2023-02-04T07:49:25;1.20;99.90
24384;DHT22;12504;52.870;8.798;2023-02-04T07:51:51;1.20;99.90
24384;DHT22;12504;52.870;8.798;2023-02-04T07:54:16;1.10;99.90
24384;DHT22;12504;52.870;8.798;2023-02-04T07:56:42;1.20;99.90
24384;DHT22;12504;52.870;8.798;2023-02-04T07:59:08;1.20;99.90
24384;DHT22;12504;52.870;8.798;2023-02-04T08:01:33;1.10;99.90
24384;DHT22;12504;52.870;8.798;2023-02-04T08:03:59;1.10;99.90
24384;DHT22;12504;52.870;8.798;2023-02-04T08:06:25;1.20;99.90
24384;DHT22;12504;52.870;8.798;2023-02-04T08:08:50;1.20;99.90
24384;DHT22;12504;52.870;8.798;2023-02-04T08:11:16;1.20;99.90
24384;DHT22;12504;52.870;8.798;2023-02-04T08:13:41;1.30;99.90
24384;DHT22;12504;52.870;8.798;2023-02-04T08:16:07;1.30;99.90
24384;DHT22;12504;52.870;8.798;2023-02-04T08:18:33;1.40;99.90
24384;DHT22;12504;52.870;8.798;2023-02-04T08:20:58;1.40;99.90
24384;DHT22;12504;52.870;8.798;2023-02-04T08:23:26;1.50;99.90
24384;DHT22;12504;52.870;8.798;2023-02-04T08:25:51;1.60;99.90
24384;DHT22;12504;52.870;8.798;2023-02-04T08:28:17;1.80;99.90
24384;DHT22;12504;52.870;8.798;2023-02-04T08:30:43;1.80;99.90
24384;DHT22;12504;52.870;8.798;2023-02-04T08:33:09;1.90;99.90
24384;DHT22;12504;52.870;8.798;2023-02-04T08:35:34;1.90;99.90
24384;DHT22;12504;52.870;8.798;2023-02-04T08:38:00;2.00;99.90
24384;DHT22;12504;52.870;8.798;2023-02-04T08:40:26;2.10;99.90
24384;DHT22;12504;52.870;8.798;2023-02-04T08:42:52;2.10;99.90
24384;DHT22;12504;52.870;8.798;2023-02-04T08:45:17;2.30;99.90
24384;DHT22;12504;52.870;8.798;2023-02-04T08:47:43;2.30;99.90
24384;DHT22;12504;52.870;8.798;2023-02-04T08:50:09;2.40;99.90
24384;DHT22;12504;52.870;8.798;2023-02-04T08:52:35;2.50;99.90
24384;DHT22;12504;52.870;8.798;2023-02-04T08:55:01;2.60;99.90
24384;DHT22;12504;52.870;8.798;2023-02-04T08:57:27;2.60;99.90
24384;DHT22;12504;52.870;8.798;2023-02-04T08:59:53;2.60;99.90
24384;DHT22;12504;52.870;8.798;2023-02-04T09:02:18;2.60;99.90
24384;DHT22;12504;52.870;8.798;2023-02-04T09:04:44;2.60;99.90
24384;DHT22;12504;52.870;8.798;2023-02-04T09:07:12;2.60;99.90
24384;DHT22;12504;52.870;8.798;2023-02-04T09:09:40;2.60;99.90
24384;DHT22;12504;52.870;8.798;2023-02-04T09:12:06;2.60;99.90
24384;DHT22;12504;52.870;8.798;2023-02-04T09:14:32;2.70;99.90
24384;DHT22;12504;52.870;8.798;2023-02-04T09:16:57;2.80;99.90
24384;DHT22;12504;52.870;8.798;2023-02-04T09:19:23;2.90;99.90
24384;DHT22;12504;52.870;8.798;2023-02-04T09:21:52;3.10;99.90
24384;DHT22;12504;52.870;8.798;2023-02-04T09:24:18;3.10;99.90
24384;DHT22;12504;52.870;8.798;2023-02-04T09:26:44;3.10;99.90
24384;DHT22;12504;52.870;8.798;2023-02-04T09:29:10;3.20;99.90
24384;DHT22;12504;52.870;8.798;2023-02-04T09:31:35;3.10;99.90
24384;DHT22;12504;52.870;8.798;2023-02-04T09:34:01;3.10;99.90
24384;DHT22;12504;52.870;8.798;2023-02-04T09:36:27;3.10;99.90
24384;DHT22;12504;52.870;8.798;2023-02-04T09:38:55;3.10;99.90
24384;DHT22;12504;52.870;8.798;2023-02-04T09:41:21;3.10;99.90
24384;DHT22;12504;52.870;8.798;2023-02-04T09:43:46;3.10;99.90
24384;DHT22;12504;52.870;8.798;2023-02-04T09:46:23;3.00;99.90
24384;DHT22;12504;52.870;8.798;2023-02-04T09:48:53;3.00;99.90
24384;DHT22;12504;52.870;8.798;2023-02-04T09:51:22;3.00;99.90
24384;DHT22;12504;52.870;8.798;2023-02-04T09:53:49;3.00;99.90
24384;DHT22;12504;52.870;8.798;2023-02-04T09:56:18;3.00;99.90
24384;DHT22;12504;52.870;8.798;2023-02-04T09:58:44;3.10;99.90
24384;DHT22;12504;52.870;8.798;2023-02-04T10:01:15;3.20;99.90
24384;DHT22;12504;52.870;8.798;2023-02-04T10:03:42;3.30;99.90
24384;DHT22;12504;52.870;8.798;2023-02-04T10:06:18;3.30;99.90
24384;DHT22;12504;52.870;8.798;2023-02-04T10:08:46;3.40;99.90
24384;DHT22;12504;52.870;8.798;2023-02-04T10:11:13;3.40;99.90
24384;DHT22;12504;52.870;8.798;2023-02-04T10:13:46;3.50;99.90
24384;DHT22;12504;52.870;8.798;2023-02-04T10:16:23;3.50;99.90
24384;DHT22;12504;52.870;8.798;2023-02-04T10:18:58;3.60;99.90
24384;DHT22;12504;52.870;8.798;2023-02-04T10:23:53;3.80;99.90
24384;DHT22;12504;52.870;8.798;2023-02-04T10:26:20;3.80;99.90
24384;DHT22;12504;52.870;8.798;2023-02-04T10:28:46;3.90;99.90
24384;DHT22;12504;52.870;8.798;2023-02-04T10:31:37;3.90;99.90
24384;DHT22;12504;52.870;8.798;2023-02-04T10:36:35;4.00;99.90
24384;DHT22;12504;52.870;8.798;2023-02-04T10:39:24;4.10;99.90
24384;DHT22;12504;52.870;8.798;2023-02-04T10:41:54;4.20;99.90
24384;DHT22;12504;52.870;8.798;2023-02-04T10:44:33;4.10;99.90
24384;DHT22;12504;52.870;8.798;2023-02-04T10:47:12;4.00;99.90
24384;DHT22;12504;52.870;8.798;2023-02-04T10:49:39;4.00;99.90
24384;DHT22;12504;52.870;8.798;2023-02-04T10:52:16;4.00;99.90
24384;DHT22;12504;52.870;8.798;2023-02-04T10:54:42;4.00;99.90
24384;DHT22;12504;52.870;8.798;2023-02-04T10:57:28;4.10;99.90
24384;DHT22;12504;52.870;8.798;2023-02-04T10:59:59;4.20;99.90
24384;DHT22;12504;52.870;8.798;2023-02-04T11:02:44;4.10;99.90
24384;DHT22;12504;52.870;8.798;2023-02-04T11:05:15;4.20;99.90
24384;DHT22;12504;52.870;8.798;2023-02-04T11:07:42;4.20;99.90
24384;DHT22;12504;52.870;8.798;2023-02-04T11:10:14;4.10;99.90
24384;DHT22;12504;52.870;8.798;2023-02-04T11:12:59;4.10;99.90
24384;DHT22;12504;52.870;8.798;2023-02-04T11:15:46;4.30;99.90
24384;DHT22;12504;52.870;8.798;2023-02-04T11:20:48;4.40;99.90
24384;DHT22;12504;52.870;8.798;2023-02-04T11:26:02;4.50;99.90
24384;DHT22;12504;52.870;8.798;2023-02-04T11:28:28;4.50;99.90
24384;DHT22;12504;52.870;8.798;2023-02-04T11:31:01;4.60;99.90
24384;DHT22;12504;52.870;8.798;2023-02-04T11:33:38;4.70;99.90
24384;DHT22;12504;52.870;8.798;2023-02-04T11:36:07;4.70;99.90
24384;DHT22;12504;52.870;8.798;2023-02-04T11:38:33;4.70;99.90
24384;DHT22;12504;52.870;8.798;2023-02-04T11:41:00;4.90;99.90
24384;DHT22;12504;52.870;8.798;2023-02-04T11:43:26;4.90;99.90
24384;DHT22;12504;52.870;8.798;2023-02-04T11:46:12;5.40;99.90
24384;DHT22;12504;52.870;8.798;2023-02-04T11:56:13;9.80;1.00
24384;DHT22;12504;52.870;8.798;2023-02-04T11:58:40;10.30;1.00
24384;DHT22;12504;52.870;8.798;2023-02-04T12:01:18;10.60;1.00
24384;DHT22;12504;52.870;8.798;2023-02-04T12:03:47;10.80;57.20
24384;DHT22;12504;52.870;8.798;2023-02-04T12:08:46;10.50;1.00
24384;DHT22;12504;52.870;8.798;2023-02-04T12:11:24;10.20;99.90
24384;DHT22;12504;52.870;8.798;2023-02-04T12:13:55;10.90;99.90
24384;DHT22;12504;52.870;8.798;2023-02-04T12:16:22;11.20;1.00
24384;DHT22;12504;52.870;8.798;2023-02-04T12:18:48;12.30;99.90
24384;DHT22;12504;52.870;8.798;2023-02-04T12:21:15;12.50;99.90
24384;DHT22;12504;52.870;8.798;2023-02-04T12:23:41;12.70;99.90
24384;DHT22;12504;52.870;8.798;2023-02-04T12:26:07;12.10;99.90
24384;DHT22;12504;52.870;8.798;2023-02-04T12:28:33;11.90;99.90
24384;DHT22;12504;52.870;8.798;2023-02-04T12:30:59;11.60;99.90
24384;DHT22;12504;52.870;8.798;2023-02-04T12:33:25;10.60;99.90
24384;DHT22;12504;52.870;8.798;2023-02-04T12:38:18;10.10;99.90
24384;DHT22;12504;52.870;8.798;2023-02-04T12:40:43;8.80;1.00
24384;DHT22;12504;52.870;8.798;2023-02-04T12:43:09;8.30;1.00
24384;DHT22;12504;52.870;8.798;2023-02-04T12:45:35;7.80;1.00
24384;DHT22;12504;52.870;8.798;2023-02-04T12:48:02;7.50;8.70
24384;DHT22;12504;52.870;8.798;2023-02-04T12:50:28;7.30;23.10
24384;DHT22;12504;52.870;8.798;2023-02-04T12:52:56;7.20;24.60
24384;DHT22;12504;52.870;8.798;2023-02-04T12:55:24;7.10;1.00
24384;DHT22;12504;52.870;8.798;2023-02-04T12:57:51;6.90;24.90
24384;DHT22;12504;52.870;8.798;2023-02-04T13:00:18;6.70;1.00
24384;DHT22;12504;52.870;8.798;2023-02-04T13:02:44;6.60;36.70
24384;DHT22;12504;52.870;8.798;2023-02-04T13:05:10;6.70;1.00
24384;DHT22;12504;52.870;8.798;2023-02-04T13:07:36;6.60;4.70
24384;DHT22;12504;52.870;8.798;2023-02-04T13:10:03;6.50;12.30
24384;DHT22;12504;52.870;8.798;2023-02-04T13:12:28;6.30;21.50
24384;DHT22;12504;52.870;8.798;2023-02-04T13:14:54;6.30;24.50
24384;DHT22;12504;52.870;8.798;2023-02-04T13:17:20;6.20;28.40
24384;DHT22;12504;52.870;8.798;2023-02-04T13:19:45;6.10;18.80
24384;DHT22;12504;52.870;8.798;2023-02-04T13:22:11;6.10;38.10
24384;DHT22;12504;52.870;8.798;2023-02-04T13:24:37;6.10;37.10
24384;DHT22;12504;52.870;8.798;2023-02-04T13:27:03;6.10;57.80
24384;DHT22;12504;52.870;8.798;2023-02-04T13:29:29;6.20;55.20
24384;DHT22;12504;52.870;8.798;2023-02-04T13:31:55;6.30;63.80
24384;DHT22;12504;52.870;8.798;2023-02-04T13:34:22;6.20;33.20
24384;DHT22;12504;52.870;8.798;2023-02-04T13:36:47;6.20;56.90
24384;DHT22;12504;52.870;8.798;2023-02-04T13:39:13;6.30;44.20
24384;DHT22;12504;52.870;8.798;2023-02-04T13:41:39;6.30;25.90
24384;DHT22;12504;52.870;8.798;2023-02-04T13:44:05;6.40;21.10
24384;DHT22;12504;52.870;8.798;2023-02-04T13:46:31;6.40;44.50
24384;DHT22;12504;52.870;8.798;2023-02-04T13:48:58;6.40;22.80
24384;DHT22;12504;52.870;8.798;2023-02-04T13:51:24;6.30;20.00
24384;DHT22;12504;52.870;8.798;2023-02-04T13:53:50;6.40;47.40
24384;DHT22;12504;52.870;8.798;2023-02-04T13:56:16;6.40;20.20
24384;DHT22;12504;52.870;8.798;2023-02-04T13:58:42;6.40;11.50
24384;DHT22;12504;52.870;8.798;2023-02-04T14:01:10;6.50;22.80
24384;DHT22;12504;52.870;8.798;2023-02-04T14:03:36;6.60;17.30
24384;DHT22;12504;52.870;8.798;2023-02-04T14:06:01;6.60;13.00
24384;DHT22;12504;52.870;8.798;2023-02-04T14:08:27;6.40;7.90
24384;DHT22;12504;52.870;8.798;2023-02-04T14:10:53;6.50;11.60
24384;DHT22;12504;52.870;8.798;2023-02-04T14:13:18;6.30;21.90
24384;DHT22;12504;52.870;8.798;2023-02-04T14:15:44;6.20;36.90
24384;DHT22;12504;52.870;8.798;2023-02-04T14:18:10;6.00;36.00
24384;DHT22;12504;52.870;8.798;2023-02-04T14:20:36;5.90;51.80
24384;DHT22;12504;52.870;8.798;2023-02-04T14:23:04;6.00;40.60
24384;DHT22;12504;52.870;8.798;2023-02-04T14:25:30;5.90;11.30
24384;DHT22;12504;52.870;8.798;2023-02-04T14:27:55;5.80;23.50
24384;DHT22;12504;52.870;8.798;2023-02-04T14:30:27;5.90;48.60
24384;DHT22;12504;52.870;8.798;2023-02-04T14:32:53;6.00;39.10
24384;DHT22;12504;52.870;8.798;2023-02-04T14:35:20;6.00;33.90
24384;DHT22;12504;52.870;8.798;2023-02-04T14:37:46;5.90;54.70
24384;DHT22;12504;52.870;8.798;2023-02-04T14:40:12;6.10;60.20
24384;DHT22;12504;52.870;8.798;2023-02-04T14:42:38;6.00;37.20
24384;DHT22;12504;52.870;8.798;2023-02-04T14:45:05;5.90;40.40
24384;DHT22;12504;52.870;8.798;2023-02-04T14:47:32;5.90;55.20
24384;DHT22;12504;52.870;8.798;2023-02-04T14:49:57;5.80;70.00
24384;DHT22;12504;52.870;8.798;2023-02-04T14:52:23;5.70;52.80
24384;DHT22;12504;52.870;8.798;2023-02-04T14:54:49;5.70;52.60
24384;DHT22;12504;52.870;8.798;2023-02-04T14:57:15;5.60;60.00
24384;DHT22;12504;52.870;8.798;2023-02-04T14:59:40;5.60;54.10
24384;DHT22;12504;52.870;8.798;2023-02-04T15:02:08;5.50;57.40
24384;DHT22;12504;52.870;8.798;2023-02-04T15:04:34;5.40;80.60
24384;DHT22;12504;52.870;8.798;2023-02-04T15:06:59;5.40;99.90
24384;DHT22;12504;52.870;8.798;2023-02-04T15:09:25;5.50;91.50
24384;DHT22;12504;52.870;8.798;2023-02-04T15:11:50;5.40;64.20
24384;DHT22;12504;52.870;8.798;2023-02-04T15:14:17;5.40;90.30
24384;DHT22;12504;52.870;8.798;2023-02-04T15:16:43;5.40;81.30
24384;DHT22;12504;52.870;8.798;2023-02-04T15:19:13;5.40;66.50
24384;DHT22;12504;52.870;8.798;2023-02-04T15:21:39;5.40;75.50
24384;DHT22;12504;52.870;8.798;2023-02-04T15:24:04;5.50;98.80
24384;DHT22;12504;52.870;8.798;2023-02-04T15:26:30;5.50;86.20
24384;DHT22;12504;52.870;8.798;2023-02-04T15:28:56;5.50;67.90
24384;DHT22;12504;52.870;8.798;2023-02-04T15:31:22;5.40;99.90
24384;DHT22;12504;52.870;8.798;2023-02-04T15:33:48;5.30;97.10
24384;DHT22;12504;52.870;8.798;2023-02-04T15:36:14;5.20;80.50
24384;DHT22;12504;52.870;8.798;2023-02-04T15:38:40;5.20;90.80
24384;DHT22;12504;52.870;8.798;2023-02-04T15:41:05;5.10;98.30
24384;DHT22;12504;52.870;8.798;2023-02-04T15:43:31;5.00;99.90
24384;DHT22;12504;52.870;8.798;2023-02-04T15:45:57;4.90;99.90
24384;DHT22;12504;52.870;8.798;2023-02-04T15:48:23;4.90;99.90
24384;DHT22;12504;52.870;8.798;2023-02-04T15:50:49;4.80;99.90
24384;DHT22;12504;52.870;8.798;2023-02-04T15:53:16;4.70;99.90
24384;DHT22;12504;52.870;8.798;2023-02-04T15:55:42;4.50;99.90
24384;DHT22;12504;52.870;8.798;2023-02-04T15:58:07;4.50;99.90
24384;DHT22;12504;52.870;8.798;2023-02-04T16:00:33;4.40;99.90
24384;DHT22;12504;52.870;8.798;2023-02-04T16:02:59;4.30;99.90
24384;DHT22;12504;52.870;8.798;2023-02-04T16:05:25;4.10;99.90
24384;DHT22;12504;52.870;8.798;2023-02-04T16:07:50;4.00;99.90
24384;DHT22;12504;52.870;8.798;2023-02-04T16:10:17;3.90;99.90